Time;durP1;ratioP1;P1;durP2;ratioP2;P2;SDS_P1;SDS_P2;PMS_P1;PMS_P2;Temp;Humidity;BMP_temperature;BMP_pressure;BME280_temperature;BME280_humidity;BME280_pressure;Samples;Min_cycle;Max_cycle;Signal;HPM_P1;HPM_P2
2023/01/11 00:01:10;;;;;;;1.30;0.30;;;;;;;6.90;76.88;99873.78;10562326;28;20210;-85
2023/01/11 00:06:12;;;;;;;0.20;0.20;;;;;;;6.84;76.74;99874.97;10523529;28;20207;-87
2023/01/11 00:11:15;;;;;;;0.10;0.10;;;;;;;6.62;76.93;99874.72;10528349;28;20237;-85
2023/01/11 00:16:17;;;;;;;0.60;0.20;;;;;;;6.61;76.54;99859.97;10557421;28;20187;-87
2023/01/11 00:21:21;;;;;;;0.33;0.20;;;;;;;7.35;74.72;99863.00;10518178;28;20219;-86
2023/01/11 00:26:23;;;;;;;0.17;0.17;;;;;;;7.11;75.08;99861.16;10497628;28;20203;-85
2023/01/11 00:31:25;;;;;;;1.23;0.10;;;;;;;7.03;75.12;99845.13;10503673;28;20249;-84
2023/01/11 00:36:27;;;;;;;0.17;0.10;;;;;;;7.00;74.70;99848.53;10531613;28;20428;-87
2023/01/11 00:52:20;;;;;;;0.10;0.10;;;;;;;7.31;75.77;99820.13;10541572;28;20186;-86
2023/01/11 00:57:22;;;;;;;0.30;0.13;;;;;;;7.29;76.20;99816.81;10547236;28;20202;-87
2023/01/11 01:02:25;;;;;;;0.10;0.00;;;;;;;7.29;75.70;99816.81;10547136;28;20203;-86
2023/01/11 01:07:27;;;;;;;0.43;0.43;;;;;;;7.08;76.59;99836.66;10531128;28;20271;-85
2023/01/11 01:17:54;;;;;;;0.20;0.10;;;;;;;7.50;74.54;99837.59;10520940;28;20202;-87
2023/01/11 01:22:56;;;;;;;0.10;0.10;;;;;;;7.70;74.22;99850.38;10536320;28;20183;-85
2023/01/11 01:27:58;;;;;;;0.43;0.10;;;;;;;7.56;74.97;99833.59;10531283;28;20199;-86
2023/01/11 01:33:00;;;;;;;0.10;0.10;;;;;;;7.45;74.89;99821.81;10510789;28;20198;-86
2023/01/11 01:38:03;;;;;;;0.00;0.00;;;;;;;7.52;75.43;99818.59;10532436;28;20244;-84
2023/01/11 01:43:09;;;;;;;0.23;0.00;;;;;;;7.64;75.14;99813.34;10524073;28;20248;-84
2023/01/11 01:48:15;;;;;;;0.00;0.00;;;;;;;7.47;75.70;99807.53;10524412;28;20479;-85
2023/01/11 01:53:19;;;;;;;0.47;0.03;;;;;;;7.60;75.66;99801.13;10527350;28;20190;-85
2023/01/11 01:58:26;;;;;;;0.00;0.00;;;;;;;7.77;74.39;99779.03;10544867;28;20232;-85
2023/01/11 02:03:28;;;;;;;0.47;0.10;;;;;;;7.55;75.53;99776.13;10540169;28;20875;-86
2023/01/11 02:08:37;;;;;;;0.00;0.00;;;;;;;7.55;75.70;99780.88;10534170;28;20195;-85
2023/01/11 02:13:44;;;;;;;0.53;0.00;;;;;;;8.08;74.33;99778.38;10543002;28;20240;-86
2023/01/11 02:18:47;;;;;;;0.33;0.10;;;;;;;7.99;75.11;99764.31;10524658;28;20219;-86
2023/01/11 02:24:08;;;;;;;0.20;0.00;;;;;;;7.95;75.09;99779.22;10539257;28;20260;-86
2023/01/11 02:29:29;;;;;;;0.10;0.00;;;;;;;7.92;76.20;99760.31;10530196;28;20194;-86
2023/01/11 02:34:46;;;;;;;1.17;0.03;;;;;;;8.11;76.62;99767.41;10543313;28;20218;-87
2023/01/11 02:40:06;;;;;;;0.20;0.10;;;;;;;8.19;76.12;99757.50;10508041;28;20206;-87
2023/01/11 02:45:33;;;;;;;0.00;0.00;;;;;;;8.31;76.99;99754.97;10507000;28;20202;-84
2023/01/11 02:51:02;;;;;;;0.00;0.00;;;;;;;7.91;78.77;99744.69;10510369;28;20248;-84
2023/01/11 02:56:10;;;;;;;2.97;0.10;;;;;;;8.13;78.60;99742.78;10545239;28;20190;-86
2023/01/11 03:01:12;;;;;;;0.40;0.00;;;;;;;8.09;78.38;99746.53;10532905;28;20207;-84
2023/01/11 03:06:19;;;;;;;0.13;0.13;;;;;;;8.26;79.20;99745.88;10533746;28;20212;-85
2023/01/11 03:17:19;;;;;;;0.07;0.00;;;;;;;7.93;80.52;99732.06;10549569;28;20652;-83
2023/01/11 03:22:28;;;;;;;0.00;0.00;;;;;;;8.02;80.80;99723.75;10551137;28;20210;-84
2023/01/11 03:27:37;;;;;;;0.37;0.00;;;;;;;8.00;81.36;99721.28;10548563;28;20511;-87
2023/01/11 03:32:46;;;;;;;0.00;0.00;;;;;;;7.99;81.93;99730.81;10520997;28;20191;-86
2023/01/11 03:38:01;;;;;;;0.10;0.00;;;;;;;7.69;83.39;99726.72;10492598;28;20280;-87
2023/01/11 03:43:12;;;;;;;0.07;0.00;;;;;;;7.87;83.20;99722.97;10524416;28;20218;-86
2023/01/11 03:48:39;;;;;;;0.00;0.00;;;;;;;8.10;82.81;99726.66;10525245;28;20206;-83
2023/01/11 03:53:45;;;;;;;0.00;0.00;;;;;;;8.43;82.57;99724.50;10550187;28;20198;-84
2023/01/11 03:58:47;;;;;;;0.00;0.00;;;;;;;8.51;82.23;99720.13;10547698;28;20224;-83
2023/01/11 04:03:49;;;;;;;0.30;0.10;;;;;;;7.70;85.49;99717.22;10548606;28;20602;-83
2023/01/11 04:08:51;;;;;;;0.30;0.00;;;;;;;8.03;84.25;99719.84;10534255;28;20599;-86
2023/01/11 04:13:53;;;;;;;0.07;0.00;;;;;;;7.89;85.58;99714.28;10528399;28;20194;-85
2023/01/11 04:18:56;;;;;;;0.50;0.00;;;;;;;8.27;84.92;99703.66;10545409;28;20207;-82
2023/01/11 04:23:59;;;;;;;0.77;0.10;;;;;;;8.27;85.40;99703.66;10544720;28;20195;-84
2023/01/11 04:29:01;;;;;;;0.10;0.03;;;;;;;8.08;86.61;99701.00;10523301;28;20213;-87
2023/01/11 04:34:03;;;;;;;0.00;0.00;;;;;;;7.77;86.85;99706.44;10502300;28;20219;-86
2023/01/11 04:39:09;;;;;;;0.10;0.00;;;;;;;7.51;88.08;99691.38;10533009;28;20650;-86
2023/01/11 04:44:11;;;;;;;0.00;0.00;;;;;;;7.79;86.89;99695.78;10541968;28;20599;-84
2023/01/11 04:49:13;;;;;;;0.37;0.00;;;;;;;8.10;86.52;99683.94;10532200;28;20198;-82
2023/01/11 04:54:15;;;;;;;0.03;0.00;;;;;;;8.11;85.73;99682.81;10542432;28;20253;-82
2023/01/11 04:59:18;;;;;;;0.00;0.00;;;;;;;8.02;87.02;99679.09;10519399;28;20260;-82
2023/01/11 05:04:20;;;;;;;0.50;0.00;;;;;;;8.09;86.95;99674.72;10512344;28;20537;-85
2023/01/11 05:09:22;;;;;;;0.10;0.00;;;;;;;7.84;88.07;99678.09;10537092;28;20195;-86
2023/01/11 05:14:25;;;;;;;0.00;0.00;;;;;;;8.08;86.34;99683.44;10544524;28;20267;-84
2023/01/11 05:19:27;;;;;;;1.30;0.00;;;;;;;8.28;86.65;99688.56;10527602;28;20214;-85
2023/01/11 05:24:29;;;;;;;0.30;0.23;;;;;;;8.52;85.92;99672.28;10544160;28;20194;-82
2023/01/11 05:29:31;;;;;;;0.20;0.00;;;;;;;8.31;86.32;99682.34;10526044;28;20194;-83
2023/01/11 05:34:33;;;;;;;0.53;0.10;;;;;;;8.54;86.47;99667.22;10534588;28;20496;-84
2023/01/11 05:39:35;;;;;;;0.07;0.03;;;;;;;8.46;86.87;99678.34;10491759;28;20236;-82
2023/01/11 05:49:59;;;;;;;0.67;0.10;;;;;;;8.75;86.06;99669.50;10532245;28;20217;-83
2023/01/11 05:55:01;;;;;;;0.60;0.10;;;;;;;8.69;87.24;99670.78;10509422;28;20255;-81
2023/01/11 06:00:04;;;;;;;0.83;0.10;;;;;;;8.88;86.02;99665.81;10533011;28;20214;-85
2023/01/11 06:05:07;;;;;;;1.17;0.10;;;;;;;8.56;87.47;99670.53;10524247;28;20199;-86
2023/01/11 06:10:10;;;;;;;0.33;0.00;;;;;;;8.75;87.02;99663.91;10485412;28;20190;-85
2023/01/11 06:15:12;;;;;;;0.10;0.10;;;;;;;8.83;86.70;99665.94;10504586;28;20202;-87
2023/01/11 06:20:14;;;;;;;0.20;0.00;;;;;;;8.70;87.53;99680.81;10523668;28;20610;-85
2023/01/11 06:25:16;;;;;;;0.10;0.10;;;;;;;8.86;87.12;99670.88;10541881;28;20198;-85
2023/01/11 06:30:19;;;;;;;0.70;0.10;;;;;;;8.53;87.73;99676.75;10533599;28;20240;-85
2023/01/11 06:35:21;;;;;;;0.23;0.10;;;;;;;8.75;87.01;99670.34;10518019;28;20288;-85
2023/01/11 06:40:23;;;;;;;0.10;0.10;;;;;;;9.23;86.31;99656.41;10540013;28;20491;-86
2023/01/11 06:45:26;;;;;;;1.37;0.20;;;;;;;8.89;87.64;99659.06;10525136;28;20198;-86
2023/01/11 06:50:28;;;;;;;0.20;0.20;;;;;;;9.26;87.49;99655.78;10540191;28;20190;-86
2023/01/11 06:55:30;;;;;;;0.20;0.20;;;;;;;9.11;87.42;99667.41;10538997;28;20236;-86
2023/01/11 07:00:33;;;;;;;0.10;0.10;;;;;;;9.08;88.63;99661.59;10533608;28;20549;-87
2023/01/11 07:05:35;;;;;;;1.23;0.20;;;;;;;9.16;87.68;99670.03;10531877;28;20191;-86
2023/01/11 07:10:38;;;;;;;0.50;0.23;;;;;;;9.92;85.12;99678.22;10520898;28;20191;-87
2023/01/11 07:15:41;;;;;;;2.37;0.30;;;;;;;9.88;84.77;99689.25;10515270;28;20203;-86
2023/01/11 07:20:43;;;;;;;1.73;0.40;;;;;;;9.79;85.42;99699.63;10541185;28;20267;-86
2023/01/11 07:25:47;;;;;;;0.30;0.30;;;;;;;9.95;85.71;99697.16;10518113;28;20203;-86
2023/01/11 07:30:49;;;;;;;0.63;0.40;;;;;;;9.84;85.40;99710.66;10519516;28;20221;-86
2023/01/11 07:36:04;;;;;;;0.60;0.60;;;;;;;9.75;86.64;99715.41;10538070;28;20230;-85
2023/01/11 07:43:10;;;;;;;1.33;0.60;;;;;;;10.10;85.26;99740.72;10542434;28;20214;-86
2023/01/11 07:46:28;;;;;;;0.93;0.53;;;;;;;9.86;86.33;99741.16;10547424;28;20191;-86
2023/01/11 07:51:30;;;;;;;1.90;0.57;;;;;;;9.79;87.25;99750.03;10524478;28;20195;-86
2023/01/11 07:56:33;;;;;;;0.50;0.50;;;;;;;9.88;86.19;99764.06;10534393;28;20240;-86
2023/01/11 08:01:35;;;;;;;0.50;0.30;;;;;;;9.99;85.42;99771.84;10518784;28;20203;-86
2023/01/11 08:06:39;;;;;;;1.20;0.40;;;;;;;9.91;86.27;99774.63;10521784;28;20244;-86
2023/01/11 08:17:02;;;;;;;1.50;0.70;;;;;;;9.99;85.36;99737.38;10529352;28;20501;-88
2023/01/11 08:22:04;;;;;;;1.87;0.93;;;;;;;9.82;87.26;99751.34;10534098;28;20249;-87
2023/01/11 08:27:06;;;;;;;5.53;1.23;;;;;;;10.30;84.39;99754.94;10538655;28;20671;-87
2023/01/11 08:32:10;;;;;;;2.97;1.50;;;;;;;10.27;84.02;99768.78;10534600;28;20190;-86
2023/01/11 08:37:13;;;;;;;2.43;1.40;;;;;;;10.51;83.50;99776.72;10522583;28;20252;-87
2023/01/11 08:42:15;;;;;;;3.40;1.70;;;;;;;10.46;82.85;99774.88;10537722;28;20291;-88
2023/01/11 08:47:18;;;;;;;2.07;1.73;;;;;;;10.33;83.72;99773.06;10517205;28;20199;-87
2023/01/11 08:52:20;;;;;;;2.60;2.40;;;;;;;10.16;84.00;99773.03;10528057;28;20195;-87
2023/01/11 08:57:22;;;;;;;4.47;2.93;;;;;;;10.11;85.16;99790.81;10505687;28;20206;-87
2023/01/11 09:02:24;;;;;;;5.30;3.50;;;;;;;10.81;83.20;99803.00;10511330;28;20267;-86
2023/01/11 09:07:27;;;;;;;4.80;4.40;;;;;;;10.02;86.47;99823.59;10551818;28;20594;-86
2023/01/11 09:12:31;;;;;;;6.53;3.97;;;;;;;10.22;84.85;99808.16;10525852;28;20683;-86
2023/01/11 09:17:33;;;;;;;5.17;4.67;;;;;;;10.17;84.92;99825.16;10504922;28;20322;-86
2023/01/11 09:22:36;;;;;;;7.60;4.90;;;;;;;9.81;86.63;99837.34;10521691;28;20222;-88
2023/01/11 09:27:42;;;;;;;5.70;3.87;;;;;;;9.57;85.45;99834.09;10518085;28;20257;-87
2023/01/11 09:32:45;;;;;;;8.27;2.90;;;;;;;9.37;84.20;99871.84;10524131;28;20271;-88
2023/01/11 09:37:49;;;;;;;9.40;3.10;;;;;;;9.61;82.60;99885.53;10512957;28;20222;-87
2023/01/11 09:42:52;;;;;;;12.20;2.77;;;;;;;9.40;84.27;99904.00;10528326;28;20219;-88
2023/01/11 09:48:31;;;;;;;12.90;2.87;;;;;;;9.72;81.82;99916.88;10520174;28;20204;-87
2023/01/11 09:53:37;;;;;;;13.13;3.37;;;;;;;9.42;83.12;99907.28;10525045;28;20194;-87
2023/01/11 09:59:13;;;;;;;12.50;3.03;;;;;;;9.82;80.13;99911.81;10524162;28;20483;-88
2023/01/11 10:04:36;;;;;;;12.00;3.13;;;;;;;9.59;81.52;99918.59;10519985;28;20295;-88
2023/01/11 10:09:50;;;;;;;8.87;2.80;;;;;;;9.35;82.80;99923.66;10529836;28;20190;-87
2023/01/11 10:15:37;;;;;;;13.07;2.40;;;;;;;9.53;78.97;99942.31;10524616;28;20194;-87
2023/01/11 10:21:10;;;;;;;13.27;2.77;;;;;;;9.62;78.93;99948.78;10535911;28;20222;-88
2023/01/11 10:26:27;;;;;;;9.90;2.60;;;;;;;9.93;76.80;99934.81;10548145;28;20529;-88
2023/01/11 10:42:26;;;;;;;10.47;3.77;;;;;;;9.79;79.54;99929.31;10511953;28;20245;-87
2023/01/11 10:47:40;;;;;;;17.13;5.43;;;;;;;9.83;79.06;99957.47;10484580;28;20199;-86
2023/01/11 10:52:50;;;;;;;17.27;5.73;;;;;;;9.88;79.23;99954.56;10461673;28;20476;-87
2023/01/11 10:58:01;;;;;;;14.83;4.77;;;;;;;9.74;78.33;99965.84;10460263;28;20207;-86
2023/01/11 11:03:07;;;;;;;16.13;5.10;;;;;;;9.54;79.61;99961.56;10461590;28;20200;-87
2023/01/11 11:08:18;;;;;;;19.37;6.67;;;;;;;9.61;80.61;99961.94;10497404;28;20187;-87
2023/01/11 11:13:47;;;;;;;12.80;5.40;;;;;;;9.86;77.74;99963.28;10488534;28;20196;-86
2023/01/11 11:18:51;;;;;;;18.70;5.50;;;;;;;9.89;76.27;99956.22;10469402;28;20236;-86
2023/01/11 11:24:02;;;;;;;12.27;4.80;;;;;;;10.01;75.59;99964.84;10462475;28;20210;-87
2023/01/11 11:29:07;;;;;;;14.17;3.90;;;;;;;9.75;74.20;99973.09;10460714;28;20199;-86
2023/01/11 11:34:15;;;;;;;12.27;4.20;;;;;;;9.95;74.09;99972.56;10489727;28;20272;-87
2023/01/11 11:39:27;;;;;;;10.80;3.80;;;;;;;10.20;73.11;99989.84;10490049;28;20225;-86
2023/01/11 11:44:30;;;;;;;14.47;3.90;;;;;;;9.90;72.92;100003.53;10507020;28;20219;-86
2023/01/11 11:49:34;;;;;;;11.57;2.83;;;;;;;9.98;72.57;100002.75;10490879;28;20500;-86
2023/01/11 11:54:42;;;;;;;9.73;2.40;;;;;;;9.85;70.92;100003.63;10493692;28;20572;-85
2023/01/11 11:59:46;;;;;;;10.57;2.30;;;;;;;10.05;69.00;99993.91;10484877;28;20203;-86
2023/01/11 12:04:49;;;;;;;11.97;2.30;;;;;;;9.83;70.80;100008.72;10509659;28;20211;-86
2023/01/11 12:09:59;;;;;;;11.63;2.60;;;;;;;9.82;70.59;100012.66;10502857;28;20256;-85
2023/01/11 12:15:19;;;;;;;13.87;2.73;;;;;;;9.96;70.12;100009.81;10502461;28;20191;-85
2023/01/11 12:20:21;;;;;;;14.73;2.33;;;;;;;10.01;67.68;100007.72;10501920;28;20668;-86
2023/01/11 12:25:24;;;;;;;12.30;2.93;;;;;;;9.66;68.20;100005.81;10504098;28;20218;-86
2023/01/11 12:30:38;;;;;;;12.23;2.60;;;;;;;9.94;67.69;100012.91;10505173;28;20187;-86
2023/01/11 12:35:50;;;;;;;13.17;2.93;;;;;;;9.65;69.54;100001.34;10496747;28;20228;-86
2023/01/11 12:40:58;;;;;;;10.57;2.67;;;;;;;9.84;68.54;99987.97;10497184;28;20257;-85
2023/01/11 12:46:25;;;;;;;9.83;3.60;;;;;;;10.07;67.90;99990.75;10506320;28;20661;-86
2023/01/11 12:51:43;;;;;;;9.10;3.47;;;;;;;9.90;68.40;100000.72;10488728;28;20254;-87
2023/01/11 12:57:12;;;;;;;9.17;3.63;;;;;;;9.94;67.21;99992.47;10490707;28;20199;-86
2023/01/11 13:03:04;;;;;;;10.27;3.10;;;;;;;9.82;65.84;100000.63;10496492;28;20215;-87
2023/01/11 13:08:40;;;;;;;7.07;2.23;;;;;;;9.88;64.91;100022.63;10433304;28;20199;-87
2023/01/11 13:13:56;;;;;;;6.53;1.97;;;;;;;9.42;65.67;100025.69;10480682;28;20203;-87
2023/01/11 13:19:07;;;;;;;10.30;2.30;;;;;;;9.48;65.52;100032.00;10491702;28;20582;-85
2023/01/11 13:24:15;;;;;;;5.70;2.30;;;;;;;9.44;66.10;100039.38;10453475;28;20218;-86
2023/01/11 13:29:25;;;;;;;7.20;2.33;;;;;;;10.12;64.15;100024.25;10475101;28;20250;-87
2023/01/11 13:34:33;;;;;;;8.17;2.37;;;;;;;9.68;64.05;100037.09;10493905;28;20229;-87
2023/01/11 13:39:51;;;;;;;8.23;2.13;;;;;;;9.82;62.87;100043.47;10494504;28;20199;-86
2023/01/11 13:45:17;;;;;;;8.10;2.13;;;;;;;9.79;61.38;100046.94;10471458;28;20250;-86
2023/01/11 13:50:30;;;;;;;9.30;2.03;;;;;;;9.50;61.65;100040.91;10453399;28;20195;-86
2023/01/11 13:56:05;;;;;;;10.73;1.40;;;;;;;9.54;61.94;100055.94;10482349;28;20199;-87
2023/01/11 14:01:10;;;;;;;10.50;2.27;;;;;;;9.07;61.49;100060.03;10486249;28;20253;-86
2023/01/11 14:06:41;;;;;;;12.10;1.80;;;;;;;9.44;61.84;100057.00;10487265;28;20261;-86
2023/01/11 14:11:54;;;;;;;11.43;1.77;;;;;;;9.28;62.46;100064.88;10476946;28;20228;-84
2023/01/11 14:17:05;;;;;;;12.60;1.83;;;;;;;9.00;63.00;100062.44;10495884;28;20223;-86
2023/01/11 14:22:30;;;;;;;9.23;2.27;;;;;;;9.00;62.60;100077.25;10490745;28;20469;-87
2023/01/11 14:27:57;;;;;;;12.87;2.20;;;;;;;10.06;59.68;100076.00;10487630;28;20248;-84
2023/01/11 14:33:37;;;;;;;6.37;1.77;;;;;;;9.60;60.55;100074.28;10475011;28;20219;-86
2023/01/11 14:38:54;;;;;;;9.60;1.73;;;;;;;9.41;61.12;100099.59;10496573;28;20219;-85
2023/01/11 14:44:15;;;;;;;7.87;1.43;;;;;;;9.72;59.54;100101.72;10505299;28;20214;-86
2023/01/11 14:49:45;;;;;;;11.03;2.27;;;;;;;9.67;60.44;100099.84;10490724;28;20250;-86
2023/01/11 14:54:50;;;;;;;7.20;1.77;;;;;;;9.41;61.13;100118.41;10503460;28;20224;-86
2023/01/11 14:59:53;;;;;;;6.87;1.67;;;;;;;9.67;60.12;100105.47;10494180;28;20264;-87
2023/01/11 15:04:55;;;;;;;10.53;2.13;;;;;;;10.22;58.49;100108.06;10486261;28;20276;-86
2023/01/11 15:10:03;;;;;;;12.73;2.17;;;;;;;9.67;60.89;100101.84;10500418;28;20199;-87
2023/01/11 15:15:07;;;;;;;9.77;1.83;;;;;;;9.36;60.17;100110.06;10502940;28;20251;-84
2023/01/11 15:20:17;;;;;;;7.97;1.63;;;;;;;9.74;58.48;100117.06;10499614;28;20195;-86
2023/01/11 15:25:25;;;;;;;10.13;1.97;;;;;;;9.93;57.13;100116.94;10482286;28;20224;-84
2023/01/11 15:30:30;;;;;;;8.60;2.20;;;;;;;9.30;59.49;100123.31;10480440;28;20210;-87
2023/01/11 15:35:33;;;;;;;9.33;1.47;;;;;;;9.17;59.90;100116.59;10488169;28;20523;-84
2023/01/11 15:40:40;;;;;;;11.83;2.13;;;;;;;9.55;58.75;100119.19;10507604;28;20221;-85
2023/01/11 15:51:16;;;;;;;8.50;1.87;;;;;;;9.18;58.79;100121.06;10511971;28;20195;-84
2023/01/11 15:56:41;;;;;;;8.73;1.57;;;;;;;9.07;59.60;100122.41;10492855;28;20203;-85
2023/01/11 16:02:17;;;;;;;8.43;1.77;;;;;;;8.83;59.64;100127.38;10471292;28;20252;-83
2023/01/11 16:07:27;;;;;;;12.73;2.40;;;;;;;9.07;59.70;100122.41;10487931;28;20304;-83
2023/01/11 16:12:35;;;;;;;11.13;1.97;;;;;;;9.04;60.13;100125.81;10470549;28;20664;-82
2023/01/11 16:17:39;;;;;;;10.57;2.10;;;;;;;8.86;60.41;100146.34;10474171;28;20191;-85
2023/01/11 16:22:51;;;;;;;9.23;2.00;;;;;;;9.06;59.51;100145.94;10460724;28;20304;-84
2023/01/11 16:27:55;;;;;;;10.60;2.80;;;;;;;9.26;59.67;100155.91;10453566;28;20293;-82
2023/01/11 16:33:19;;;;;;;11.53;2.00;;;;;;;9.28;59.22;100151.63;10478682;28;20276;-82
2023/01/11 16:38:22;;;;;;;10.50;2.10;;;;;;;9.08;60.52;100157.66;10462441;28;20270;-81
2023/01/11 16:43:27;;;;;;;9.13;2.23;;;;;;;8.82;61.09;100174.09;10453759;28;20263;-82
2023/01/11 16:48:29;;;;;;;12.87;2.57;;;;;;;9.01;60.82;100178.78;10472443;28;20231;-84
2023/01/11 16:53:33;;;;;;;11.07;2.13;;;;;;;8.77;62.19;100192.91;10455503;28;20585;-84
2023/01/11 16:58:37;;;;;;;10.13;2.70;;;;;;;9.25;60.33;100185.03;10463823;28;20222;-85
2023/01/11 17:03:49;;;;;;;12.37;2.67;;;;;;;8.65;61.74;100198.16;10474331;28;20564;-85
2023/01/11 17:08:56;;;;;;;12.03;3.03;;;;;;;8.89;61.29;100196.88;10449881;28;20566;-84
2023/01/11 17:14:07;;;;;;;14.47;3.67;;;;;;;8.74;61.51;100196.34;10455322;28;20222;-85
2023/01/11 17:19:16;;;;;;;13.23;2.83;;;;;;;8.72;62.09;100196.66;10458238;28;20227;-84
2023/01/11 17:24:23;;;;;;;13.87;2.30;;;;;;;8.47;62.28;100195.13;10461805;28;20301;-83
2023/01/11 17:29:38;;;;;;;11.40;2.30;;;;;;;8.34;62.53;100212.66;10458427;28;20654;-82
2023/01/11 17:34:41;;;;;;;13.37;2.20;;;;;;;8.58;61.93;100212.53;10468293;28;20255;-84
2023/01/11 17:39:47;;;;;;;10.90;2.23;;;;;;;8.90;60.99;100208.91;10456642;28;20231;-84
2023/01/11 17:50:25;;;;;;;9.33;2.23;;;;;;;8.60;61.22;100204.69;10473087;28;20223;-84
2023/01/11 17:55:27;;;;;;;11.47;2.60;;;;;;;8.49;62.94;100195.66;10461455;28;20222;-85
2023/01/11 18:00:30;;;;;;;10.73;1.87;;;;;;;8.64;62.36;100200.13;10476899;28;20269;-86
2023/01/11 18:05:32;;;;;;;10.80;2.53;;;;;;;8.34;63.98;100190.31;10468636;28;20242;-86
2023/01/11 18:10:37;;;;;;;9.83;2.03;;;;;;;8.26;64.30;100196.56;10470296;28;20239;-86
2023/01/11 18:15:45;;;;;;;6.30;1.70;;;;;;;8.11;64.94;100208.75;10450139;28;20536;-86
2023/01/11 18:20:47;;;;;;;9.43;2.03;;;;;;;8.36;64.38;100204.81;10432537;28;20300;-85
2023/01/11 18:25:49;;;;;;;7.40;1.67;;;;;;;8.61;63.65;100211.13;10455853;28;20981;-84
2023/01/11 18:30:53;;;;;;;8.60;1.60;;;;;;;8.54;63.04;100206.72;10454259;28;20270;-84
2023/01/11 18:35:58;;;;;;;7.67;1.27;;;;;;;8.16;64.07;100199.53;10448223;28;20254;-84
2023/01/11 18:46:29;;;;;;;9.17;1.60;;;;;;;8.30;63.05;100194.84;10483899;28;20234;-84
2023/01/11 18:51:39;;;;;;;13.50;1.53;;;;;;;8.30;62.21;100192.03;10470241;28;20719;-84
2023/01/11 18:56:41;;;;;;;7.87;1.30;;;;;;;7.57;64.71;100195.31;10469266;28;20268;-84
2023/01/11 19:01:43;;;;;;;5.30;1.27;;;;;;;8.13;62.83;100198.13;10461400;28;20253;-85
2023/01/11 19:07:02;;;;;;;7.80;1.93;;;;;;;8.28;62.19;100199.88;10468309;28;20238;-84
2023/01/11 19:12:05;;;;;;;11.63;1.63;;;;;;;8.34;61.95;100195.06;10458368;28;20223;-86
2023/01/11 19:17:08;;;;;;;10.87;1.60;;;;;;;8.29;62.07;100170.81;10483120;28;20192;-85
2023/01/11 19:22:10;;;;;;;11.73;2.13;;;;;;;7.78;63.56;100187.47;10475380;28;20223;-85
2023/01/11 19:27:13;;;;;;;7.57;1.60;;;;;;;7.86;63.45;100173.66;10457991;28;20243;-85
2023/01/11 19:32:16;;;;;;;6.50;1.40;;;;;;;7.58;63.42;100154.28;10458695;28;20239;-86
2023/01/11 19:37:18;;;;;;;8.80;1.30;;;;;;;7.67;63.09;100147.72;10458710;28;20259;-85
2023/01/11 19:42:22;;;;;;;8.70;1.63;;;;;;;7.98;62.64;100150.06;10471569;28;20289;-84
2023/01/11 19:47:25;;;;;;;6.10;1.63;;;;;;;7.87;62.82;100152.16;10459003;28;20309;-85
2023/01/11 19:52:28;;;;;;;10.53;1.60;;;;;;;8.00;62.46;100147.78;10468226;28;20226;-84
2023/01/11 19:57:31;;;;;;;7.20;1.97;;;;;;;7.94;63.01;100160.16;10466283;28;20254;-84
2023/01/11 20:02:33;;;;;;;6.63;0.90;;;;;;;8.05;62.67;100136.53;10474135;28;20287;-83
2023/01/11 20:07:35;;;;;;;7.40;1.30;;;;;;;8.15;61.90;100137.22;10477781;28;20227;-83
2023/01/11 20:12:37;;;;;;;4.73;0.97;;;;;;;7.74;63.81;100139.78;10447480;28;20231;-86
2023/01/11 20:17:40;;;;;;;8.90;1.63;;;;;;;7.29;64.69;100141.25;10462891;28;20231;-84
2023/01/11 20:22:43;;;;;;;6.90;1.40;;;;;;;8.21;62.10;100124.00;10459755;28;20239;-85
2023/01/11 20:27:45;;;;;;;9.27;1.37;;;;;;;8.03;61.86;100127.63;10455876;28;20231;-85
2023/01/11 20:32:47;;;;;;;8.97;1.57;;;;;;;8.20;61.36;100113.97;10456857;28;20232;-84
2023/01/11 20:37:50;;;;;;;10.00;1.90;;;;;;;7.86;63.63;100116.97;10459150;28;20579;-83
2023/01/11 20:42:52;;;;;;;8.53;1.50;;;;;;;7.95;63.17;100125.53;10471388;28;20231;-83
2023/01/11 20:47:54;;;;;;;7.07;1.43;;;;;;;7.90;63.07;100098.50;10485459;28;20252;-85
2023/01/11 20:52:59;;;;;;;8.07;2.10;;;;;;;8.05;62.20;100094.63;10475757;28;20308;-85
2023/01/11 20:58:01;;;;;;;4.20;1.20;;;;;;;7.65;63.43;100087.72;10459394;28;20239;-85
2023/01/11 21:03:03;;;;;;;9.87;1.83;;;;;;;7.75;63.58;100082.81;10480568;28;20280;-85
2023/01/11 21:08:05;;;;;;;10.73;2.00;;;;;;;8.31;62.27;100084.72;10473939;28;20255;-84
2023/01/11 21:13:07;;;;;;;5.97;1.50;;;;;;;8.15;63.03;100091.69;10467139;28;20276;-83
2023/01/11 21:18:13;;;;;;;8.60;1.67;;;;;;;7.78;63.00;100104.53;10504207;28;20268;-85
2023/01/11 21:23:16;;;;;;;7.80;1.57;;;;;;;7.75;63.02;100087.56;10489656;28;20640;-85
2023/01/11 21:28:18;;;;;;;7.13;1.30;;;;;;;7.70;62.45;100094.06;10494637;28;20257;-84
2023/01/11 21:33:21;;;;;;;10.90;1.63;;;;;;;7.70;64.77;100096.88;10474372;28;20470;-85
2023/01/11 21:38:23;;;;;;;12.70;2.03;;;;;;;7.35;67.96;100089.81;10462599;28;20231;-84
2023/01/11 21:43:25;;;;;;;6.63;1.30;;;;;;;8.03;67.96;100085.72;10498899;28;20242;-84
2023/01/11 21:48:28;;;;;;;6.00;1.90;;;;;;;7.70;69.41;100062.53;10477145;28;20244;-87
2023/01/11 21:53:31;;;;;;;5.43;1.73;;;;;;;7.64;71.72;100047.81;10460760;28;20611;-86
2023/01/11 21:58:33;;;;;;;7.40;1.23;;;;;;;7.18;72.96;100028.16;10459766;28;20199;-86
2023/01/11 22:03:36;;;;;;;12.37;2.07;;;;;;;7.21;72.43;100021.09;10466383;28;20219;-86
2023/01/11 22:08:38;;;;;;;6.93;1.40;;;;;;;6.85;73.40;100013.22;10482112;28;20195;-85
2023/01/11 22:13:41;;;;;;;4.80;1.27;;;;;;;7.20;73.29;100019.47;10471210;28;20196;-85
2023/01/11 22:18:44;;;;;;;6.80;1.60;;;;;;;7.10;74.56;100014.84;10480761;28;20207;-85
2023/01/11 22:23:52;;;;;;;12.10;2.07;;;;;;;7.05;75.50;100014.94;10459121;28;20569;-84
2023/01/11 22:29:13;;;;;;;7.10;1.40;;;;;;;6.80;76.91;100016.09;10467953;28;20200;-85
2023/01/11 22:34:17;;;;;;;7.70;1.70;;;;;;;6.98;74.96;100003.31;10487546;28;20215;-85
2023/01/11 22:39:20;;;;;;;17.57;1.60;;;;;;;7.22;75.53;100026.38;10472493;28;20207;-85
2023/01/11 22:44:23;;;;;;;7.33;1.60;;;;;;;7.61;73.01;100019.66;10481369;28;20500;-84
2023/01/11 22:49:25;;;;;;;10.13;1.97;;;;;;;7.42;73.28;100030.84;10472135;28;20199;-86
2023/01/11 22:54:27;;;;;;;9.47;1.53;;;;;;;7.38;74.13;100038.16;10455397;28;20192;-85
2023/01/11 22:59:30;;;;;;;9.50;1.30;;;;;;;7.66;72.29;100025.19;10469803;28;20204;-84
2023/01/11 23:04:32;;;;;;;9.63;1.63;;;;;;;7.80;72.13;100035.28;10484697;28;20619;-85
2023/01/11 23:09:34;;;;;;;9.10;1.67;;;;;;;7.84;71.80;100036.34;10483942;28;20248;-84
2023/01/11 23:14:36;;;;;;;8.23;1.27;;;;;;;7.91;73.36;100040.69;10478868;28;20245;-84
2023/01/11 23:19:40;;;;;;;10.87;1.83;;;;;;;7.82;74.59;100040.56;10491545;28;20204;-84
2023/01/11 23:24:42;;;;;;;5.20;1.27;;;;;;;7.81;75.41;100036.94;10477410;28;20219;-84
2023/01/11 23:29:44;;;;;;;7.67;1.30;;;;;;;7.69;75.46;100031.00;10502227;28;20226;-85
2023/01/11 23:34:46;;;;;;;7.87;1.23;;;;;;;8.06;75.52;100021.72;10478993;28;20219;-85
2023/01/11 23:39:49;;;;;;;8.73;1.93;;;;;;;7.45;76.57;100033.06;10499225;28;20199;-85
2023/01/11 23:44:54;;;;;;;9.60;2.00;;;;;;;7.82;75.70;100019.06;10498880;28;20215;-85
2023/01/11 23:50:01;;;;;;;11.07;1.43;;;;;;;7.70;75.30;100029.03;10481829;28;20272;-85
2023/01/11 23:55:04;;;;;;;9.03;1.63;;;;;;;7.44;76.91;100032.22;10483373;28;20249;-84
